Time;durP1;ratioP1;P1;durP2;ratioP2;P2;SDS_P1;SDS_P2;PMS_P1;PMS_P2;Temp;Humidity;BMP_temperature;BMP_pressure;BME280_temperature;BME280_humidity;BME280_pressure;Samples;Min_cycle;Max_cycle;Signal;HPM_P1;HPM_P2
2022/05/08 00:00:09;;;;;;;11.68;4.63;;;;;;;12.15;74.82;102512.72;5006659;28;20030;-87
2022/05/08 00:02:40;;;;;;;;;;;;;;;12.23;73.36;102526.84;5002987;28;20082;-89
2022/05/08 00:05:09;;;;;;;10.88;4.50;;;;;;;12.18;74.55;102516.19;4987245;28;19976;-92
2022/05/08 00:07:35;;;;;;;8.35;4.40;;;;;;;12.23;74.39;102521.41;4999992;28;20073;-88
2022/05/08 00:10:00;;;;;;;8.18;5.55;;;;;;;12.15;74.97;102512.72;4986868;28;20046;-86
2022/05/08 00:12:26;;;;;;;10.57;5.80;;;;;;;12.15;75.10;102523.63;4992349;28;20040;-88
2022/05/08 00:14:51;;;;;;;10.63;5.22;;;;;;;12.08;75.28;102511.31;4982157;28;20038;-86
2022/05/08 00:17:18;;;;;;;10.20;5.22;;;;;;;12.10;74.98;102514.81;5000039;28;20029;-88
2022/05/08 00:19:45;;;;;;;10.77;5.22;;;;;;;12.07;76.14;102514.97;5010909;28;20640;-87
2022/05/08 00:22:11;;;;;;;13.35;5.20;;;;;;;12.06;75.64;102513.22;5005860;28;20096;-87
2022/05/08 00:24:37;;;;;;;11.32;5.88;;;;;;;12.05;76.37;102520.50;4990783;28;20041;-91
2022/05/08 00:27:03;;;;;;;11.02;5.80;;;;;;;12.05;76.13;102520.50;4994402;28;20144;-88
2022/05/08 00:29:29;;;;;;;8.82;5.60;;;;;;;11.95;76.00;102517.38;5007752;28;20560;-91
2022/05/08 00:31:54;;;;;;;10.40;5.30;;;;;;;11.96;76.57;102518.25;4972178;28;20030;-87
2022/05/08 00:34:20;;;;;;;7.25;5.00;;;;;;;11.96;76.27;102521.88;4970250;28;20035;-88
2022/05/08 00:36:45;;;;;;;10.93;5.55;;;;;;;11.97;75.63;102520.91;4987715;28;20434;-85
2022/05/08 00:39:10;;;;;;;10.40;5.80;;;;;;;11.88;75.94;102515.91;4985960;28;20032;-87
2022/05/08 00:41:36;;;;;;;12.60;5.97;;;;;;;11.87;76.70;102519.59;4972200;28;20126;-88
2022/05/08 00:44:03;;;;;;;15.82;6.47;;;;;;;11.87;76.89;102525.06;5014809;28;20113;-91
2022/05/08 00:46:29;;;;;;;12.38;6.47;;;;;;;11.85;77.14;102523.38;5009848;28;20037;-90
2022/05/08 00:48:55;;;;;;;10.15;5.75;;;;;;;11.83;77.20;102528.91;5011166;28;20037;-88
2022/05/08 00:51:30;;;;;;;13.00;6.35;;;;;;;11.77;77.31;102511.94;4981259;28;20445;-92
2022/05/08 00:54:00;;;;;;;13.07;7.00;;;;;;;11.80;77.13;102539.94;4993984;28;20038;-86
2022/05/08 00:56:27;;;;;;;14.38;7.32;;;;;;;11.61;76.72;102515.47;4989500;28;20038;-88
2022/05/08 00:58:54;;;;;;;13.10;6.88;;;;;;;11.69;76.39;102526.84;4991986;28;20088;-86
2022/05/08 01:01:20;;;;;;;15.90;6.85;;;;;;;11.63;76.51;102516.25;4988084;28;20033;-87
2022/05/08 01:03:45;;;;;;;12.48;6.45;;;;;;;11.69;76.44;102529.56;4974570;28;20041;-87
2022/05/08 01:06:14;;;;;;;13.85;6.60;;;;;;;11.64;76.93;102530.75;5011376;28;20054;-91
2022/05/08 01:08:45;;;;;;;12.82;7.15;;;;;;;11.62;77.25;102525.41;4985156;28;20060;-87
2022/05/08 01:11:11;;;;;;;10.38;6.07;;;;;;;11.63;77.38;102537.19;4989100;28;20033;-90
2022/05/08 01:13:37;;;;;;;10.63;6.95;;;;;;;11.54;77.36;102521.28;4986089;28;20014;-87
2022/05/08 01:16:08;;;;;;;12.20;7.53;;;;;;;11.56;77.28;102527.53;4989777;28;20354;-89
2022/05/08 01:18:38;;;;;;;12.00;6.90;;;;;;;11.59;77.32;102536.44;4969201;28;20117;-88
2022/05/08 01:21:07;;;;;;;12.10;7.05;;;;;;;11.56;77.14;102541.16;4989619;28;20501;-88
2022/05/08 01:23:37;;;;;;;11.38;6.50;;;;;;;11.46;76.55;102538.88;4995393;28;20432;-89
2022/05/08 01:26:04;;;;;;;13.43;7.15;;;;;;;11.29;76.03;102506.16;5009988;28;20068;-88
2022/05/08 01:28:29;;;;;;;13.77;6.97;;;;;;;11.39;76.35;102534.69;4991909;28;20034;-91
2022/05/08 01:30:56;;;;;;;12.48;7.30;;;;;;;11.31;76.77;102523.28;4991607;28;20042;-86
2022/05/08 01:33:23;;;;;;;14.38;8.07;;;;;;;11.29;76.89;102533.38;4980274;28;20045;-86
2022/05/08 01:35:51;;;;;;;14.35;6.93;;;;;;;11.28;77.19;102534.31;4988032;28;20417;-86
2022/05/08 01:38:18;;;;;;;14.63;7.47;;;;;;;11.25;77.21;102537.22;5008228;28;20028;-88
2022/05/08 01:40:44;;;;;;;11.95;7.18;;;;;;;11.23;77.59;102547.28;4997284;28;20089;-87
2022/05/08 01:43:10;;;;;;;17.88;7.82;;;;;;;11.18;77.87;102547.50;5011481;28;20492;-88
2022/05/08 01:45:36;;;;;;;11.18;7.75;;;;;;;11.13;77.67;102552.28;4961195;28;20487;-86
2022/05/08 01:50:47;;;;;;;16.17;7.85;;;;;;;11.05;78.36;102548.16;4984105;28;20122;-86
2022/05/08 01:53:13;;;;;;;11.48;7.40;;;;;;;11.04;78.43;102549.13;4993707;28;20061;-89
2022/05/08 01:55:38;;;;;;;12.63;7.57;;;;;;;11.00;78.47;102551.09;4995575;28;20442;-89
2022/05/08 01:58:04;;;;;;;15.77;7.60;;;;;;;10.95;78.47;102545.88;5007679;28;20041;-90
2022/05/08 02:00:30;;;;;;;14.45;8.63;;;;;;;10.95;78.75;102564.94;5016101;28;20108;-90
2022/05/08 02:03:00;;;;;;;16.20;8.20;;;;;;;10.92;79.28;102561.50;5006715;28;20033;-90
2022/05/08 02:05:28;;;;;;;15.00;8.15;;;;;;;10.90;79.24;102558.81;4978628;28;20099;-88
2022/05/08 02:07:55;;;;;;;18.05;8.30;;;;;;;10.82;78.63;102555.59;5020013;28;20037;-88
2022/05/08 02:10:21;;;;;;;16.88;9.45;;;;;;;10.83;79.17;102556.47;4989524;28;20068;-88
2022/05/08 02:12:46;;;;;;;16.75;9.30;;;;;;;10.83;79.31;102561.91;4987239;28;20105;-92
2022/05/08 02:15:14;;;;;;;13.63;8.05;;;;;;;10.78;79.18;102558.53;4991330;28;20515;-90
2022/05/08 02:17:40;;;;;;;20.42;9.00;;;;;;;10.72;79.24;102566.00;4981110;28;20421;-90
2022/05/08 02:20:09;;;;;;;14.88;8.73;;;;;;;10.59;78.92;102551.19;4992676;28;20032;-90
2022/05/08 02:22:37;;;;;;;23.33;10.02;;;;;;;10.71;78.71;102574.22;4991545;28;20103;-87
2022/05/08 02:25:04;;;;;;;16.52;8.70;;;;;;;10.63;79.14;102569.16;4977337;28;20034;-92
2022/05/08 02:27:40;;;;;;;22.88;8.73;;;;;;;10.63;78.99;102573.69;4990335;28;20032;-89
2022/05/08 02:30:10;;;;;;;15.80;8.23;;;;;;;10.63;79.75;102576.41;4986736;28;20038;-86
2022/05/08 02:32:37;;;;;;;14.55;8.98;;;;;;;10.58;79.17;102573.88;5005362;28;20038;-87
2022/05/08 02:35:10;;;;;;;18.80;9.02;;;;;;;10.48;79.38;102558.94;4990608;28;20034;-88
2022/05/08 02:37:36;;;;;;;;;;;;;;;10.59;77.84;102577.53;5000600;28;20089;-87
2022/05/08 02:40:02;;;;;;;16.08;7.80;;;;;;;10.55;79.48;102578.59;4982060;28;19964;-90
2022/05/08 02:42:27;;;;;;;19.77;9.07;;;;;;;10.48;79.17;102576.13;4991292;28;20304;-88
2022/05/08 02:44:53;;;;;;;12.93;7.80;;;;;;;10.44;79.25;102576.34;4977477;28;20041;-89
2022/05/08 02:47:18;;;;;;;19.95;8.52;;;;;;;10.40;79.14;102591.06;5005365;28;20048;-89
2022/05/08 02:49:44;;;;;;;19.67;8.93;;;;;;;10.34;79.68;102572.25;5001083;28;20511;-89
2022/05/08 02:52:09;;;;;;;15.82;8.70;;;;;;;10.29;79.78;102564.31;4990864;28;20041;-87
2022/05/08 02:54:35;;;;;;;20.23;9.23;;;;;;;10.30;79.46;102576.94;4986310;28;20080;-91
2022/05/08 02:59:44;;;;;;;16.52;8.68;;;;;;;10.27;79.96;102578.94;5007315;28;20099;-92
2022/05/08 03:02:10;;;;;;;16.85;8.45;;;;;;;10.23;79.86;102573.59;4984320;28;20438;-87
2022/05/08 03:04:35;;;;;;;17.90;8.35;;;;;;;10.27;79.54;102573.50;4990957;28;20064;-90
2022/05/08 03:07:02;;;;;;;16.15;8.60;;;;;;;10.22;79.58;102574.53;4986932;28;20490;-88
2022/05/08 03:09:28;;;;;;;17.55;9.00;;;;;;;10.19;79.02;102582.81;5003013;28;20064;-86
2022/05/08 03:11:53;;;;;;;19.73;9.10;;;;;;;10.17;79.46;102578.41;4990498;28;20021;-90
2022/05/08 03:14:23;;;;;;;20.33;7.85;;;;;;;10.10;80.47;102569.63;4997665;28;20038;-91
2022/05/08 03:16:49;;;;;;;21.48;8.90;;;;;;;10.16;78.43;102574.78;4983389;28;20030;-86
2022/05/08 03:19:16;;;;;;;16.48;7.85;;;;;;;10.13;78.53;102571.34;4985142;28;20069;-88
2022/05/08 03:21:41;;;;;;;24.85;8.55;;;;;;;10.12;78.75;102569.56;5006271;28;20022;-86
2022/05/08 03:24:07;;;;;;;15.57;7.20;;;;;;;10.11;76.92;102578.66;4981359;28;20143;-88
2022/05/08 03:26:33;;;;;;;17.40;6.45;;;;;;;9.97;75.81;102552.06;4985876;28;20042;-88
2022/05/08 03:28:59;;;;;;;16.60;6.63;;;;;;;10.08;76.11;102570.66;4996385;28;20441;-89
2022/05/08 03:31:26;;;;;;;17.45;7.43;;;;;;;10.04;77.08;102574.44;5006456;28;20066;-85
2022/05/08 03:33:52;;;;;;;14.00;5.55;;;;;;;10.00;75.80;102564.66;4980144;28;20385;-88
2022/05/08 03:36:17;;;;;;;14.82;6.40;;;;;;;10.06;75.78;102578.84;5002422;28;20030;-91
2022/05/08 03:38:44;;;;;;;13.30;6.03;;;;;;;10.03;76.35;102576.28;4972624;28;20116;-88
2022/05/08 03:41:14;;;;;;;21.40;6.60;;;;;;;10.00;76.26;102576.41;4987502;28;20556;-89
2022/05/08 03:43:42;;;;;;;14.30;6.13;;;;;;;10.00;76.97;102575.53;5001036;28;20537;-87
2022/05/08 03:46:07;;;;;;;20.05;6.88;;;;;;;9.99;76.55;102574.66;4974751;28;20038;-89
2022/05/08 03:48:34;;;;;;;11.00;6.68;;;;;;;10.04;77.03;102569.91;4971778;28;20038;-88
2022/05/08 03:51:00;;;;;;;12.52;5.68;;;;;;;10.03;77.38;102578.13;5006976;28;20040;-88
2022/05/08 03:53:26;;;;;;;17.77;7.05;;;;;;;10.04;77.55;102588.03;5008029;28;20458;-86
2022/05/08 03:55:52;;;;;;;20.50;5.88;;;;;;;9.97;76.11;102577.41;4987267;28;20092;-88
2022/05/08 03:58:20;;;;;;;18.25;6.07;;;;;;;9.93;75.11;102591.19;4988208;28;20108;-86
2022/05/08 04:00:45;;;;;;;16.98;5.05;;;;;;;9.84;74.76;102586.13;4994128;28;20451;-87
2022/05/08 04:03:11;;;;;;;11.27;5.40;;;;;;;9.73;74.78;102580.28;5002587;28;20434;-90
2022/05/08 04:05:36;;;;;;;15.82;4.97;;;;;;;9.74;74.66;102592.91;4986980;28;20038;-86
2022/05/08 04:08:01;;;;;;;19.27;5.30;;;;;;;9.67;74.41;102593.16;5004893;28;20038;-88
2022/05/08 04:10:27;;;;;;;16.45;5.63;;;;;;;9.65;75.26;102592.34;5006533;28;20049;-87
2022/05/08 04:12:52;;;;;;;16.98;5.63;;;;;;;9.64;75.36;102592.41;4992769;28;20453;-90
2022/05/08 04:18:02;;;;;;;17.85;5.22;;;;;;;9.61;74.63;102601.56;5007679;28;20037;-88
2022/05/08 04:20:27;;;;;;;17.35;4.43;;;;;;;9.56;74.32;102605.41;4995057;28;20385;-86
2022/05/08 04:25:37;;;;;;;12.57;4.47;;;;;;;9.44;74.49;102593.22;5006065;28;20042;-87
2022/05/08 04:28:03;;;;;;;17.40;5.22;;;;;;;9.40;75.16;102594.28;4993839;28;20090;-90
2022/05/08 04:30:31;;;;;;;19.55;4.72;;;;;;;9.44;75.12;102606.78;4975721;28;20045;-88
2022/05/08 04:32:57;;;;;;;16.52;4.22;;;;;;;9.26;75.09;102575.78;4985892;28;20149;-87
2022/05/08 04:35:22;;;;;;;19.20;4.80;;;;;;;9.37;75.72;102610.69;4993516;28;20041;-87
2022/05/08 04:37:48;;;;;;;16.63;4.07;;;;;;;9.35;75.30;102601.72;5013461;28;20041;-87
2022/05/08 04:40:13;;;;;;;23.70;5.32;;;;;;;9.32;75.64;102600.00;5009297;28;20049;-88
2022/05/08 04:42:39;;;;;;;21.52;4.43;;;;;;;9.28;75.74;102600.16;4981790;28;20366;-90
2022/05/08 04:45:05;;;;;;;14.98;4.63;;;;;;;9.27;76.12;102604.72;4985593;28;20081;-86
2022/05/08 04:47:31;;;;;;;22.00;4.68;;;;;;;9.32;75.72;102615.41;4985896;28;20094;-87
2022/05/08 04:49:56;;;;;;;29.83;4.97;;;;;;;9.31;75.62;102619.97;4982307;28;20346;-87
2022/05/08 04:52:22;;;;;;;16.42;4.28;;;;;;;9.21;76.00;102596.81;5005182;28;20022;-89
2022/05/08 04:54:49;;;;;;;18.08;4.20;;;;;;;9.35;75.82;102613.47;4973343;28;20057;-86
2022/05/08 04:57:15;;;;;;;17.92;4.20;;;;;;;9.33;75.82;102620.81;4982636;28;20073;-89
2022/05/08 04:59:42;;;;;;;19.15;4.05;;;;;;;9.36;75.79;102617.06;5001794;28;20064;-87
2022/05/08 05:02:08;;;;;;;16.35;3.78;;;;;;;9.31;75.88;102622.66;4972254;28;20034;-86
2022/05/08 05:04:34;;;;;;;22.88;4.72;;;;;;;9.35;75.72;102623.44;5006501;28;20057;-86
2022/05/08 05:07:00;;;;;;;16.95;4.75;;;;;;;9.32;76.06;102615.41;5001377;28;20061;-88
2022/05/08 05:09:25;;;;;;;16.83;4.55;;;;;;;9.39;75.40;102633.25;4992699;28;20053;-87
2022/05/08 05:11:50;;;;;;;17.40;4.18;;;;;;;9.39;75.60;102639.56;4980299;28;20022;-91
2022/05/08 05:14:16;;;;;;;12.57;4.40;;;;;;;9.38;75.57;102636.91;5005209;28;20026;-90
2022/05/08 05:16:41;;;;;;;14.32;4.50;;;;;;;9.39;76.04;102627.81;4990127;28;20036;-89
2022/05/08 05:19:07;;;;;;;20.52;4.63;;;;;;;9.39;76.14;102630.53;5000276;28;20113;-90
2022/05/08 05:21:32;;;;;;;14.80;4.30;;;;;;;9.48;76.56;102637.44;5017772;28;20029;-86
2022/05/08 05:23:58;;;;;;;14.30;4.28;;;;;;;9.57;75.68;102639.81;4989233;28;20069;-90
2022/05/08 05:26:23;;;;;;;18.00;5.43;;;;;;;9.63;74.49;102650.41;4992943;28;20538;-85
2022/05/08 05:28:51;;;;;;;24.55;4.18;;;;;;;9.60;75.16;102654.13;5007590;28;20186;-89
2022/05/08 05:31:17;;;;;;;21.75;4.68;;;;;;;9.55;74.36;102657.97;4991006;28;20037;-86
2022/05/08 05:33:43;;;;;;;17.02;4.43;;;;;;;9.56;74.59;102652.50;4989733;28;20157;-90
2022/05/08 05:36:08;;;;;;;20.67;4.13;;;;;;;9.61;74.64;102658.66;5008377;28;20041;-86
2022/05/08 05:38:33;;;;;;;14.70;4.97;;;;;;;9.59;73.57;102657.78;4991368;28;20506;-92
2022/05/08 05:40:59;;;;;;;18.48;3.47;;;;;;;9.61;73.09;102666.78;4993972;28;20452;-88
2022/05/08 05:43:24;;;;;;;21.65;5.20;;;;;;;9.62;73.81;102665.84;4988475;28;20331;-89
2022/05/08 05:47:49;;;;;;;17.05;4.43;;;;;;;9.72;74.14;102669.09;4997982;28;20038;-87
2022/05/08 05:48:37;;;;;;;15.35;4.20;;;;;;;9.84;73.28;102679.47;4977676;28;20046;-91
2022/05/08 05:51:05;;;;;;;14.23;3.83;;;;;;;9.87;73.79;102682.06;4980781;28;20053;-86
2022/05/08 05:53:30;;;;;;;22.15;4.47;;;;;;;9.89;74.19;102676.56;4990353;28;20018;-85
2022/05/08 05:55:59;;;;;;;17.98;4.07;;;;;;;10.05;73.22;102685.88;5007869;28;20030;-88
2022/05/08 05:58:24;;;;;;;16.27;3.92;;;;;;;10.18;72.50;102689.84;5005595;28;20374;-86
2022/05/08 06:00:50;;;;;;;16.30;3.97;;;;;;;10.33;72.28;102690.19;5004642;28;20044;-88
2022/05/08 06:03:19;;;;;;;18.67;4.07;;;;;;;10.44;71.07;102696.97;4985693;28;20021;-89
2022/05/08 06:05:46;;;;;;;16.05;3.65;;;;;;;10.37;71.88;102679.13;5017485;28;20050;-86
2022/05/08 06:08:12;;;;;;;17.58;5.18;;;;;;;10.45;70.18;102706.03;5014135;28;20030;-91
2022/05/08 06:10:37;;;;;;;16.45;3.53;;;;;;;10.31;70.49;102703.88;4972353;28;20532;-86
2022/05/08 06:13:03;;;;;;;21.17;3.90;;;;;;;10.22;70.36;102699.66;5008341;28;20052;-93
2022/05/08 06:15:28;;;;;;;16.67;4.07;;;;;;;10.18;70.80;102687.13;4973294;28;20096;-87
2022/05/08 06:17:55;;;;;;;14.55;3.97;;;;;;;10.31;71.53;102716.59;4979310;28;20042;-86
2022/05/08 06:20:21;;;;;;;17.92;3.78;;;;;;;10.33;69.86;102711.97;4998860;28;20065;-85
2022/05/08 06:22:52;;;;;;;23.80;4.43;;;;;;;10.39;71.00;102701.69;4988094;28;20111;-85
2022/05/08 06:25:17;;;;;;;16.35;4.43;;;;;;;10.53;69.30;102708.41;4986237;28;20044;-88
2022/05/08 06:27:42;;;;;;;15.10;4.38;;;;;;;10.42;70.05;102690.69;4988899;28;20116;-89
2022/05/08 06:30:12;;;;;;;18.33;3.92;;;;;;;10.62;68.94;102705.28;4981113;28;20597;-90
2022/05/08 06:32:37;;;;;;;15.23;4.10;;;;;;;10.71;68.75;102708.50;4964227;28;20060;-92
2022/05/08 06:35:02;;;;;;;12.80;2.95;;;;;;;10.70;67.22;102717.63;4999792;28;20612;-85
2022/05/08 06:37:28;;;;;;;16.27;3.53;;;;;;;10.62;67.60;102725.22;4992793;28;20018;-88
2022/05/08 06:39:53;;;;;;;15.02;4.07;;;;;;;10.53;69.11;102725.63;5014753;28;20033;-91
2022/05/08 06:42:19;;;;;;;19.33;3.90;;;;;;;10.51;69.04;102707.59;5001951;28;20038;-91
2022/05/08 06:44:50;;;;;;;18.30;4.15;;;;;;;10.74;70.36;102726.56;4996921;28;20094;-86
2022/05/08 06:47:15;;;;;;;18.33;3.65;;;;;;;10.84;68.10;102721.59;5008036;28;20461;-89
2022/05/08 06:49:41;;;;;;;11.80;3.50;;;;;;;10.89;68.60;102728.59;4999059;28;20448;-91
2022/05/08 06:52:08;;;;;;;15.20;3.47;;;;;;;10.81;66.83;102730.75;5018020;28;20037;-89
2022/05/08 06:54:33;;;;;;;16.40;3.80;;;;;;;10.76;67.73;102738.25;5014095;28;20028;-88
2022/05/08 06:56:59;;;;;;;22.42;4.50;;;;;;;10.66;67.10;102705.09;4988995;28;20397;-88
2022/05/08 07:02:12;;;;;;;14.00;4.05;;;;;;;11.15;65.87;102727.47;5010598;28;20034;-89
2022/05/08 07:04:38;;;;;;;18.48;4.25;;;;;;;11.26;66.97;102734.25;4971737;28;20404;-88
2022/05/08 07:07:04;;;;;;;16.58;3.53;;;;;;;11.31;65.07;102734.94;4976384;28;20121;-86
2022/05/08 07:09:29;;;;;;;15.48;3.95;;;;;;;11.39;66.25;102724.59;4990362;28;20141;-89
2022/05/08 07:11:55;;;;;;;18.25;4.65;;;;;;;11.45;64.66;102719.72;4975213;28;20048;-90
2022/05/08 07:14:21;;;;;;;14.02;4.47;;;;;;;11.46;65.08;102742.41;4986090;28;20057;-91
2022/05/08 07:16:46;;;;;;;14.38;4.05;;;;;;;11.42;65.50;102740.78;4989292;28;20065;-88
2022/05/08 07:19:12;;;;;;;15.30;4.78;;;;;;;11.36;64.96;102733.78;4989182;28;20041;-86
2022/05/08 07:21:38;;;;;;;19.58;4.43;;;;;;;11.46;64.76;102740.56;4974331;28;20030;-86
2022/05/08 07:24:04;;;;;;;12.98;3.58;;;;;;;11.36;64.49;102732.88;5000677;28;20098;-89
2022/05/08 07:26:29;;;;;;;15.82;4.57;;;;;;;11.31;65.22;102737.66;4990178;28;20057;-88
2022/05/08 07:28:54;;;;;;;17.42;4.20;;;;;;;11.31;65.26;102745.84;4988820;28;20061;-89
2022/05/08 07:31:20;;;;;;;14.27;4.13;;;;;;;11.27;65.33;102738.75;5004006;28;20042;-86
2022/05/08 07:33:45;;;;;;;15.63;4.32;;;;;;;11.49;67.41;102731.38;5005882;28;20044;-86
2022/05/08 07:36:14;;;;;;;22.00;4.07;;;;;;;11.73;65.20;102746.59;4972213;28;20046;-88
2022/05/08 07:38:44;;;;;;;15.88;4.30;;;;;;;11.57;65.16;102734.63;5007815;28;20034;-88
2022/05/08 07:41:11;;;;;;;18.95;5.65;;;;;;;11.57;65.50;102745.53;5007407;28;20064;-88
2022/05/08 07:43:38;;;;;;;19.92;4.53;;;;;;;11.50;66.47;102754.94;4989477;28;20038;-86
2022/05/08 07:46:04;;;;;;;18.48;4.72;;;;;;;11.40;65.24;102753.59;5005328;28;20489;-86
2022/05/08 07:48:30;;;;;;;19.00;4.80;;;;;;;11.43;65.41;102751.63;5002633;28;20489;-86
2022/05/08 07:50:59;;;;;;;15.70;4.47;;;;;;;11.41;64.69;102753.53;4977763;28;20113;-87
2022/05/08 07:53:24;;;;;;;25.00;5.15;;;;;;;11.51;66.60;102753.97;5003970;28;20034;-85
2022/05/08 07:55:53;;;;;;;20.83;5.50;;;;;;;11.73;64.90;102770.25;4996103;28;20152;-91
2022/05/08 07:58:19;;;;;;;16.80;4.10;;;;;;;11.83;63.68;102757.97;4976607;28;20030;-88
2022/05/08 08:00:45;;;;;;;22.77;4.65;;;;;;;11.91;63.69;102757.63;5011427;28;20033;-87
2022/05/08 08:03:10;;;;;;;22.15;4.55;;;;;;;12.22;62.67;102759.78;5008295;28;20120;-90
2022/05/08 08:05:35;;;;;;;17.23;4.45;;;;;;;12.59;63.18;102757.94;4990334;28;20108;-90
2022/05/08 08:08:02;;;;;;;14.30;4.38;;;;;;;12.92;59.39;102760.81;4990273;28;20030;-90
2022/05/08 08:10:29;;;;;;;17.30;4.03;;;;;;;12.96;60.15;102756.94;4971206;28;20037;-90
2022/05/08 08:12:56;;;;;;;17.73;4.68;;;;;;;12.97;59.87;102756.00;4988057;28;20046;-87
2022/05/08 08:15:22;;;;;;;38.70;5.68;;;;;;;13.32;59.28;102764.22;4993620;28;20033;-86
2022/05/08 08:17:47;;;;;;;13.55;4.15;;;;;;;13.67;57.34;102760.47;5001478;28;20084;-90
2022/05/08 08:20:13;;;;;;;21.42;5.57;;;;;;;13.88;58.15;102760.22;4993355;28;20034;-89
2022/05/08 08:22:47;;;;;;;20.75;4.45;;;;;;;14.62;61.33;102765.16;5008107;28;20057;-88
2022/05/08 08:25:12;;;;;;;12.32;4.00;;;;;;;15.43;59.30;102757.47;4993694;28;20571;-92
2022/05/08 08:27:41;;;;;;;20.20;3.97;;;;;;;15.81;51.62;102761.47;4992788;28;20457;-90
2022/05/08 08:30:07;;;;;;;16.75;4.07;;;;;;;15.74;51.84;102757.34;4986880;28;20034;-93
2022/05/08 08:32:33;;;;;;;17.35;4.25;;;;;;;15.85;51.53;102767.63;5005667;28;20497;-89
2022/05/08 08:34:58;;;;;;;15.27;4.68;;;;;;;16.05;54.13;102761.75;4989133;28;20034;-90
2022/05/08 08:37:24;;;;;;;15.40;4.60;;;;;;;16.75;56.82;102760.81;4988214;28;20457;-91
2022/05/08 08:39:49;;;;;;;13.57;3.70;;;;;;;16.71;46.37;102771.09;4982697;28;20034;-88
2022/05/08 08:42:31;;;;;;;17.90;3.72;;;;;;;15.89;50.93;102760.97;5004658;28;20069;-89
2022/05/08 08:48:05;;;;;;;17.15;4.65;;;;;;;15.86;50.95;102763.94;4981971;28;20034;-90
2022/05/08 08:50:32;;;;;;;15.75;3.65;;;;;;;15.79;49.35;102765.28;5003068;28;20033;-92
2022/05/08 08:53:01;;;;;;;12.32;4.28;;;;;;;16.01;50.82;102767.53;4993250;28;20523;-86
2022/05/08 08:55:27;;;;;;;15.77;4.25;;;;;;;16.52;53.62;102762.34;4992532;28;20117;-90
2022/05/08 08:57:52;;;;;;;12.68;4.00;;;;;;;16.67;47.79;102760.41;4978957;28;20091;-91
2022/05/08 09:00:18;;;;;;;15.38;4.05;;;;;;;16.23;48.25;102762.41;5009803;28;20041;-88
2022/05/08 09:02:47;;;;;;;14.88;4.53;;;;;;;15.76;48.61;102762.72;4979613;28;20175;-88
2022/05/08 09:05:13;;;;;;;11.77;3.85;;;;;;;15.91;49.80;102761.75;4991871;28;20137;-89
2022/05/08 09:07:47;;;;;;;14.18;4.03;;;;;;;16.21;50.92;102767.09;5009348;28;20038;-86
2022/05/08 09:10:23;;;;;;;18.20;3.25;;;;;;;16.50;50.16;102764.28;4986609;28;20473;-91
2022/05/08 09:12:51;;;;;;;12.52;3.70;;;;;;;16.27;46.71;102761.25;5008619;28;20041;-90
2022/05/08 09:15:25;;;;;;;18.88;3.60;;;;;;;16.38;50.01;102770.63;4979693;28;20065;-88
2022/05/08 09:17:59;;;;;;;19.27;4.35;;;;;;;16.89;47.42;102760.75;4987014;28;20577;-87
2022/05/08 09:20:29;;;;;;;14.05;3.58;;;;;;;16.35;44.76;102752.47;4976531;28;20128;-92
2022/05/08 09:23:04;;;;;;;13.77;3.33;;;;;;;16.39;49.25;102754.03;4992215;28;20129;-87
2022/05/08 09:25:57;;;;;;;10.90;3.42;;;;;;;16.26;46.75;102762.19;5005347;28;20038;-86
2022/05/08 09:28:30;;;;;;;14.65;3.55;;;;;;;15.98;47.52;102754.00;4974113;28;20052;-89
2022/05/08 09:30:57;;;;;;;10.65;3.38;;;;;;;15.84;46.83;102754.88;5008943;28;20030;-86
2022/05/08 09:33:37;;;;;;;9.73;3.60;;;;;;;15.81;47.70;102752.34;4989646;28;20083;-85
2022/05/08 09:36:03;;;;;;;10.73;3.10;;;;;;;15.88;46.80;102756.47;4975719;28;20037;-90
2022/05/08 09:38:53;;;;;;;12.85;3.70;;;;;;;16.13;49.78;102746.63;4993031;28;20029;-91
2022/05/08 09:41:24;;;;;;;11.68;2.78;;;;;;;16.31;46.54;102756.41;4992067;28;20061;-90
2022/05/08 09:43:52;;;;;;;16.55;3.83;;;;;;;16.40;45.09;102758.53;4990818;28;20030;-89
2022/05/08 09:46:20;;;;;;;14.63;4.22;;;;;;;16.42;45.16;102751.09;4991285;28;20373;-90
2022/05/08 09:48:47;;;;;;;13.07;3.30;;;;;;;16.39;44.92;102759.53;4958787;28;20039;-86
2022/05/08 09:51:17;;;;;;;13.73;3.65;;;;;;;16.56;45.03;102750.16;4992290;28;20107;-85
2022/05/08 09:53:44;;;;;;;7.53;3.10;;;;;;;16.53;45.28;102748.50;5009713;28;20112;-89
2022/05/08 09:56:12;;;;;;;11.65;3.30;;;;;;;16.89;47.55;102743.38;5003901;28;20129;-91
2022/05/08 09:58:41;;;;;;;13.38;3.20;;;;;;;16.89;42.76;102749.75;4980320;28;20046;-89
2022/05/08 10:01:07;;;;;;;8.82;3.10;;;;;;;17.48;46.57;102752.03;4987627;28;20035;-89
2022/05/08 10:03:34;;;;;;;12.85;3.35;;;;;;;17.46;46.81;102756.78;4999265;28;20102;-87
2022/05/08 10:06:02;;;;;;;13.27;3.88;;;;;;;17.33;43.89;102748.50;4991235;28;20064;-88
2022/05/08 10:08:35;;;;;;;11.82;3.78;;;;;;;17.60;45.24;102737.41;5006695;28;20396;-91
2022/05/08 10:16:51;;;;;;;12.93;4.00;;;;;;;17.90;43.93;102730.69;5013297;28;20053;-90
2022/05/08 10:19:16;;;;;;;7.90;3.20;;;;;;;18.46;44.83;102728.34;5008434;28;20045;-91
2022/05/08 10:21:57;;;;;;;12.13;3.30;;;;;;;18.59;44.14;102735.56;5011235;28;20038;-87
2022/05/08 10:24:32;;;;;;;14.18;3.90;;;;;;;18.30;43.22;102729.50;4991132;28;20045;-87
2022/05/08 10:27:18;;;;;;;13.27;3.72;;;;;;;18.18;44.75;102730.41;4999585;28;20038;-88
2022/05/08 10:30:03;;;;;;;11.27;3.45;;;;;;;18.17;42.92;102722.28;5004788;28;20026;-88
2022/05/08 10:32:49;;;;;;;13.85;3.45;;;;;;;18.13;40.86;102715.22;4983227;28;20077;-89
2022/05/08 10:35:27;;;;;;;10.18;3.28;;;;;;;18.16;42.33;102715.00;4977166;28;20040;-87
2022/05/08 10:38:16;;;;;;;12.63;3.42;;;;;;;17.94;42.83;102719.34;5010195;28;20076;-91
2022/05/08 10:40:43;;;;;;;16.02;3.67;;;;;;;17.89;41.34;102718.81;4997284;28;20044;-89
2022/05/08 10:43:14;;;;;;;12.95;3.20;;;;;;;17.94;41.90;102712.97;4982039;28;20109;-86
2022/05/08 10:45:43;;;;;;;10.23;3.10;;;;;;;18.02;42.74;102707.78;5003618;28;20029;-88
2022/05/08 10:48:13;;;;;;;5.70;2.92;;;;;;;18.09;43.68;102709.97;4988343;28;20122;-87
2022/05/08 10:50:45;;;;;;;11.02;3.40;;;;;;;18.58;40.52;102714.50;5002128;28;20512;-85
2022/05/08 10:53:32;;;;;;;10.45;2.70;;;;;;;18.87;42.40;102711.41;5014829;28;20038;-91
2022/05/08 10:56:04;;;;;;;9.95;2.67;;;;;;;19.58;42.22;102710.34;4991375;28;20033;-91
2022/05/08 10:58:30;;;;;;;8.57;3.15;;;;;;;19.68;40.01;102693.94;4981710;28;20374;-89
2022/05/08 11:00:58;;;;;;;10.57;3.67;;;;;;;19.62;42.45;102706.31;4964584;28;20030;-87
2022/05/08 11:03:25;;;;;;;10.48;3.20;;;;;;;19.58;37.98;102702.06;4966355;28;20034;-87
2022/05/08 11:05:52;;;;;;;10.80;3.20;;;;;;;19.62;39.95;102702.69;4985246;28;20042;-87
2022/05/08 11:08:32;;;;;;;10.60;2.60;;;;;;;19.84;40.90;102704.59;5003101;28;20406;-88
2022/05/08 11:11:02;;;;;;;7.90;2.78;;;;;;;20.09;40.35;102700.66;4993005;28;20038;-87
2022/05/08 11:13:39;;;;;;;11.05;3.10;;;;;;;19.96;37.24;102705.44;4985621;28;20125;-86
2022/05/08 11:16:13;;;;;;;10.70;3.30;;;;;;;19.49;38.21;102705.56;4995361;28;20040;-89
2022/05/08 11:18:40;;;;;;;12.38;2.90;;;;;;;19.64;42.34;102703.47;5006037;28;20045;-87
2022/05/08 11:21:08;;;;;;;10.15;3.20;;;;;;;19.76;39.00;102701.56;4989819;28;20041;-89
2022/05/08 11:23:36;;;;;;;12.77;3.55;;;;;;;19.70;39.70;102691.03;5005789;28;20116;-86
2022/05/08 11:26:06;;;;;;;9.10;3.20;;;;;;;19.43;38.90;102700.50;5007298;28;20038;-87
2022/05/08 11:28:37;;;;;;;10.55;3.58;;;;;;;19.21;39.36;102695.84;5011026;28;20146;-88
2022/05/08 11:31:14;;;;;;;14.57;3.63;;;;;;;19.47;41.14;102698.38;4997339;28;20046;-88
2022/05/08 11:36:38;;;;;;;11.80;2.63;;;;;;;20.05;40.75;102690.84;4994527;28;20076;-89
2022/05/08 11:39:08;;;;;;;9.68;3.22;;;;;;;20.34;37.47;102692.06;4966100;28;20034;-89
2022/05/08 11:41:36;;;;;;;12.48;3.53;;;;;;;20.42;41.84;102690.53;4991060;28;20103;-89
2022/05/08 11:44:15;;;;;;;11.52;3.38;;;;;;;20.35;37.89;102676.38;4990100;28;20125;-86
2022/05/08 11:46:45;;;;;;;11.40;3.05;;;;;;;20.94;42.35;102686.06;4982902;28;20041;-87